createdAt,value
2023-04-30T00:00:16.637Z,100801.88
2023-04-30T00:02:46.714Z,100803.72
2023-04-30T00:05:16.675Z,100809.94
2023-04-30T00:07:46.593Z,100814.44
2023-04-30T00:10:18.986Z,100817.94
2023-04-30T00:12:48.719Z,100814.59
2023-04-30T00:15:18.380Z,100825.00
2023-04-30T00:17:48.189Z,100830.41
2023-04-30T00:20:18.020Z,100825.31
2023-04-30T00:22:47.672Z,100840.97
2023-04-30T00:25:21.193Z,100849.06
2023-04-30T00:27:50.980Z,100848.41
2023-04-30T00:30:20.894Z,100852.03
2023-04-30T00:32:50.626Z,100856.50
2023-04-30T00:35:20.931Z,100863.66
2023-04-30T00:37:50.596Z,100875.19
2023-04-30T00:40:23.180Z,100879.66
2023-04-30T00:42:55.890Z,100884.19
2023-04-30T00:45:25.958Z,100890.34
2023-04-30T00:47:55.793Z,100886.09
2023-04-30T00:50:25.792Z,100888.78
2023-04-30T00:52:55.684Z,100889.69
2023-04-30T00:55:28.517Z,100887.78
2023-04-30T00:57:58.692Z,100878.44
2023-04-30T01:00:28.410Z,100877.47
2023-04-30T01:02:58.853Z,100881.28
2023-04-30T01:05:28.811Z,100886.50
2023-04-30T01:07:59.326Z,100884.81
2023-04-30T01:10:33.595Z,100881.28
2023-04-30T01:13:07.206Z,100879.75
2023-04-30T01:15:41.694Z,100884.00
2023-04-30T01:18:16.409Z,100886.56
2023-04-30T01:20:50.385Z,100886.63
2023-04-30T01:23:27.733Z,100870.94
2023-04-30T01:26:11.181Z,100867.59
2023-04-30T01:28:46.516Z,100872.03
2023-04-30T01:31:17.093Z,100872.97
2023-04-30T01:33:46.859Z,100868.69
2023-04-30T01:36:36.208Z,100868.84
2023-04-30T01:39:13.186Z,100871.50
2023-04-30T01:41:48.919Z,100869.81
2023-04-30T01:44:29.765Z,100869.91
2023-04-30T01:47:04.391Z,100862.94
2023-04-30T01:49:42.168Z,100876.13
2023-04-30T01:52:17.412Z,100864.03
2023-04-30T01:54:51.404Z,100873.75
2023-04-30T01:57:25.534Z,100879.13
2023-04-30T01:59:58.278Z,100881.78
2023-04-30T02:02:28.384Z,100883.69
2023-04-30T02:04:58.088Z,100889.00
2023-04-30T02:07:39.373Z,100898.56
2023-04-30T02:10:10.403Z,100892.50
2023-04-30T02:12:40.110Z,100890.88
2023-04-30T02:15:13.529Z,100880.41
2023-04-30T02:17:44.183Z,100885.78
2023-04-30T02:20:14.824Z,100883.22
2023-04-30T02:22:46.080Z,100883.25
2023-04-30T02:25:16.090Z,100885.06
2023-04-30T02:27:45.771Z,100878.88
2023-04-30T02:30:19.876Z,100876.31
2023-04-30T02:32:50.831Z,100875.53
2023-04-30T02:35:20.810Z,100875.63
2023-04-30T02:37:50.489Z,100876.53
2023-04-30T02:40:20.754Z,100876.44
2023-04-30T02:42:56.365Z,100861.69
2023-04-30T02:45:28.712Z,100865.38
2023-04-30T02:47:58.530Z,100854.03
2023-04-30T02:50:28.166Z,100866.25
2023-04-30T02:52:58.827Z,100860.25
2023-04-30T02:55:28.557Z,100859.34
2023-04-30T02:57:58.280Z,100865.47
2023-04-30T03:00:30.497Z,100855.09
2023-04-30T03:03:00.496Z,100861.19
2023-04-30T03:05:31.273Z,100850.97
2023-04-30T03:08:01.072Z,100857.13
2023-04-30T03:10:30.809Z,100864.22
2023-04-30T03:13:00.596Z,100863.28
2023-04-30T03:15:35.509Z,100854.66
2023-04-30T03:18:05.348Z,100853.03
2023-04-30T03:20:35.044Z,100860.88
2023-04-30T03:23:04.930Z,100855.53
2023-04-30T03:25:34.717Z,100839.94
2023-04-30T03:28:04.514Z,100837.44
2023-04-30T03:30:36.921Z,100825.34
2023-04-30T03:33:07.949Z,100829.75
2023-04-30T03:35:38.154Z,100831.44
2023-04-30T03:38:08.551Z,100827.94
2023-04-30T03:40:38.465Z,100828.91
2023-04-30T03:43:08.474Z,100831.53
2023-04-30T03:45:41.361Z,100826.38
2023-04-30T03:48:11.287Z,100828.19
2023-04-30T03:50:41.290Z,100826.56
2023-04-30T03:53:11.204Z,100834.38
2023-04-30T03:55:40.947Z,100829.25
2023-04-30T03:58:11.378Z,100837.94
2023-04-30T04:00:45.831Z,100845.72
2023-04-30T04:03:15.896Z,100855.41
2023-04-30T04:05:47.005Z,100848.38
2023-04-30T04:08:16.906Z,100875.22
2023-04-30T04:10:47.279Z,100874.06
2023-04-30T04:13:17.166Z,100869.81
2023-04-30T04:15:49.860Z,100895.94
2023-04-30T04:18:20.248Z,100926.44
2023-04-30T04:20:50.116Z,100941.22
2023-04-30T04:23:20.164Z,100969.94
2023-04-30T04:25:51.134Z,101003.03
2023-04-30T04:28:21.478Z,101015.25
2023-04-30T04:30:54.287Z,101047.53
2023-04-30T04:33:24.254Z,101070.19
2023-04-30T04:35:53.924Z,101092.81
2023-04-30T04:38:24.207Z,101118.97
2023-04-30T04:40:55.220Z,101146.81
2023-04-30T04:43:26.363Z,101176.44
2023-04-30T04:45:59.559Z,101200.84
2023-04-30T04:48:29.474Z,101277.50
2023-04-30T04:50:59.539Z,101300.97
2023-04-30T04:53:29.759Z,101317.56
2023-04-30T04:55:59.488Z,101345.41
2023-04-30T04:58:29.947Z,101381.97
2023-04-30T05:01:03.076Z,101401.13
2023-04-30T05:03:34.272Z,101417.66
2023-04-30T05:06:04.092Z,101427.25
2023-04-30T05:08:34.457Z,101449.88
2023-04-30T05:11:04.245Z,101464.69
2023-04-30T05:13:33.964Z,101478.63
2023-04-30T05:16:07.459Z,101507.34
2023-04-30T05:18:37.469Z,101502.97
2023-04-30T05:21:07.481Z,101524.75
2023-04-30T05:23:37.707Z,101520.44
2023-04-30T05:26:07.797Z,101523.91
2023-04-30T05:28:37.511Z,101518.69
2023-04-30T05:31:10.382Z,101523.91
2023-04-30T05:33:40.934Z,101537.84
2023-04-30T05:36:11.427Z,101549.13
2023-04-30T05:38:41.199Z,101562.19
2023-04-30T05:41:11.060Z,101576.09
2023-04-30T05:43:41.315Z,101573.50
2023-04-30T05:46:13.719Z,101547.38
2023-04-30T05:48:43.964Z,101536.91
2023-04-30T05:51:13.826Z,101548.19
2023-04-30T05:53:43.580Z,101559.50
2023-04-30T05:56:13.845Z,101574.31
2023-04-30T05:58:43.599Z,101583.00
2023-04-30T06:01:15.956Z,101598.66
2023-04-30T06:03:46.114Z,101623.03
2023-04-30T06:06:15.799Z,101642.19
2023-04-30T06:08:45.971Z,101616.03
2023-04-30T06:11:16.421Z,101635.16
2023-04-30T06:13:47.115Z,101637.78
2023-04-30T06:16:19.563Z,101665.66
2023-04-30T06:18:50.380Z,101648.19
2023-04-30T06:21:21.607Z,101668.22
2023-04-30T06:23:51.793Z,101684.75
2023-04-30T06:26:21.962Z,101690.81
2023-04-30T06:28:51.626Z,101669.88
2023-04-30T06:31:24.253Z,101663.75
2023-04-30T06:33:54.070Z,101678.53
2023-04-30T06:36:24.035Z,101674.09
2023-04-30T06:38:53.862Z,101681.03
2023-04-30T06:41:24.048Z,101649.53
2023-04-30T06:43:53.797Z,101696.56
2023-04-30T06:46:26.300Z,101741.00
2023-04-30T06:48:56.578Z,101773.25
2023-04-30T06:51:26.637Z,101801.13
2023-04-30T06:53:56.846Z,101843.88
2023-04-30T06:56:26.947Z,101854.31
2023-04-30T06:58:56.665Z,101876.06
2023-04-30T07:01:28.993Z,101892.59
2023-04-30T07:03:58.855Z,101902.13
2023-04-30T07:06:29.014Z,101903.81
2023-04-30T07:08:58.784Z,101924.72
2023-04-30T07:11:28.499Z,101927.19
2023-04-30T07:13:58.341Z,101927.06
2023-04-30T07:16:30.786Z,101931.28
2023-04-30T07:19:00.668Z,101910.19
2023-04-30T07:21:36.711Z,101889.88
2023-04-30T07:24:07.144Z,101851.22
2023-04-30T07:26:36.835Z,101803.75
2023-04-30T07:29:07.092Z,101740.56
2023-04-30T07:31:39.772Z,101671.13
2023-04-30T07:34:09.722Z,101629.69
2023-04-30T07:36:39.405Z,101590.88
2023-04-30T07:39:09.117Z,101533.56
2023-04-30T07:41:38.799Z,101491.06
2023-04-30T07:44:08.509Z,101431.97
2023-04-30T07:46:40.969Z,101396.38
2023-04-30T07:49:11.284Z,101349.41
2023-04-30T07:51:42.497Z,101308.47
2023-04-30T07:54:12.388Z,101279.97
2023-04-30T07:56:43.071Z,101220.69
2023-04-30T07:59:12.967Z,101177.06
2023-04-30T08:01:45.837Z,101132.56
2023-04-30T08:04:15.811Z,101065.22
2023-04-30T08:06:45.650Z,101008.28
2023-04-30T08:09:16.032Z,100937.63
2023-04-30T08:11:45.942Z,100874.56
2023-04-30T08:14:16.116Z,100801.81
2023-04-30T08:16:48.577Z,100742.22
2023-04-30T08:19:18.385Z,100669.34
2023-04-30T08:21:48.081Z,100584.91
2023-04-30T08:24:17.820Z,100488.06
2023-04-30T08:26:47.555Z,100443.31
2023-04-30T08:29:17.270Z,100400.41
2023-04-30T08:31:49.674Z,100348.53
2023-04-30T08:34:20.013Z,100318.53
2023-04-30T08:36:49.786Z,100296.63
2023-04-30T08:39:19.606Z,100280.56
2023-04-30T08:41:51.060Z,100264.75
2023-04-30T08:44:22.090Z,100255.00
2023-04-30T08:46:57.005Z,100228.06
2023-04-30T08:49:28.502Z,100200.19
2023-04-30T08:52:00.278Z,100177.81
2023-04-30T08:54:32.152Z,100166.75
2023-04-30T08:57:02.785Z,100169.31
2023-04-30T08:59:32.561Z,100168.84
2023-04-30T09:02:06.296Z,100168.09
2023-04-30T09:04:36.543Z,100159.94
2023-04-30T09:07:09.489Z,100157.75
2023-04-30T09:09:41.832Z,100155.28
2023-04-30T09:12:19.404Z,100162.22
2023-04-30T09:15:11.434Z,100160.47
2023-04-30T09:17:44.879Z,100149.50
2023-04-30T09:20:18.213Z,100148.25
2023-04-30T09:22:47.996Z,100146.16
2023-04-30T09:25:18.232Z,100146.69
2023-04-30T09:27:48.205Z,100136.78
2023-04-30T09:30:33.830Z,100142.41
2023-04-30T09:33:08.668Z,100134.66
2023-04-30T09:35:43.545Z,100133.41
2023-04-30T09:38:29.126Z,100127.69
2023-04-30T09:41:02.079Z,100136.28
2023-04-30T09:43:32.226Z,100130.19
2023-04-30T09:46:02.579Z,100137.75
2023-04-30T09:48:35.377Z,100134.34
2023-04-30T09:51:06.448Z,100124.66
2023-04-30T09:53:37.269Z,100124.72
2023-04-30T09:56:10.432Z,100127.50
2023-04-30T09:58:41.187Z,100128.53
2023-04-30T10:01:12.274Z,100116.78
2023-04-30T10:03:46.001Z,100126.13
2023-04-30T10:06:16.890Z,100114.72
2023-04-30T10:08:49.204Z,100123.50
2023-04-30T10:11:22.019Z,100125.47
2023-04-30T10:13:57.383Z,100123.81
2023-04-30T10:16:32.373Z,100130.50
2023-04-30T10:19:09.497Z,100133.78
2023-04-30T10:21:43.528Z,100121.59
2023-04-30T10:24:15.912Z,100131.31
2023-04-30T10:26:46.907Z,100135.31
2023-04-30T10:29:18.101Z,100142.81
2023-04-30T10:31:49.448Z,100148.09
2023-04-30T10:34:29.585Z,100159.16
2023-04-30T10:37:02.498Z,100167.72
2023-04-30T10:39:32.553Z,100176.22
2023-04-30T10:42:06.387Z,100181.81
2023-04-30T10:44:37.065Z,100192.81
2023-04-30T10:47:08.274Z,100220.16
2023-04-30T10:49:43.147Z,100274.59
2023-04-30T10:52:14.570Z,100348.41
2023-04-30T10:54:52.868Z,100422.34
2023-04-30T10:57:25.254Z,100477.00
2023-04-30T10:59:56.686Z,100513.47
2023-04-30T11:02:26.838Z,100493.59
2023-04-30T11:05:15.491Z,100493.75
2023-04-30T11:07:52.666Z,100511.28
2023-04-30T11:10:24.939Z,100516.34
2023-04-30T11:12:55.814Z,100501.81
2023-04-30T11:15:28.304Z,100513.44
2023-04-30T11:17:59.992Z,100533.25
2023-04-30T11:20:32.345Z,100501.44
2023-04-30T11:23:14.229Z,100525.19
2023-04-30T11:25:48.505Z,100510.19
2023-04-30T11:28:20.517Z,100562.06
2023-04-30T11:31:00.266Z,100594.94
2023-04-30T11:33:31.057Z,100616.38
2023-04-30T11:36:04.615Z,100593.63
2023-04-30T11:38:37.486Z,100594.16
2023-04-30T11:41:07.915Z,100627.22
2023-04-30T11:43:37.872Z,100686.00
2023-04-30T11:46:09.918Z,100696.41
2023-04-30T11:48:41.023Z,100697.53
2023-04-30T11:51:24.165Z,100692.31
2023-04-30T11:53:55.473Z,100714.69
2023-04-30T11:56:27.750Z,100724.13
2023-04-30T11:58:57.780Z,100741.94
2023-04-30T12:01:29.980Z,100775.25
2023-04-30T12:04:00.633Z,100719.88
2023-04-30T12:06:33.478Z,100753.09
2023-04-30T12:09:04.871Z,100763.94
2023-04-30T12:11:34.989Z,100765.56
2023-04-30T12:14:07.698Z,100785.09
2023-04-30T12:16:45.643Z,100801.63
2023-04-30T12:19:16.073Z,100796.41
2023-04-30T12:21:49.370Z,100784.31
2023-04-30T12:24:20.652Z,100813.28
2023-04-30T12:26:50.478Z,100816.47
2023-04-30T12:29:21.296Z,100849.16
2023-04-30T12:31:52.670Z,100855.03
2023-04-30T12:34:23.016Z,100870.44
2023-04-30T12:36:55.421Z,100906.56
2023-04-30T12:39:25.141Z,100896.72
2023-04-30T12:41:54.904Z,100903.66
2023-04-30T12:44:26.193Z,100893.09
2023-04-30T12:46:58.111Z,100873.75
2023-04-30T12:49:28.931Z,100889.88
2023-04-30T12:52:07.712Z,100881.44
2023-04-30T12:54:38.738Z,100897.69
2023-04-30T12:57:09.708Z,100868.81
2023-04-30T12:59:40.914Z,100864.78
2023-04-30T13:02:14.952Z,100883.03
2023-04-30T13:04:45.708Z,100910.50
2023-04-30T13:07:18.200Z,100914.44
2023-04-30T13:09:47.933Z,100917.00
2023-04-30T13:12:17.923Z,100899.28
2023-04-30T13:14:47.746Z,100890.59
2023-04-30T13:17:17.827Z,100901.16
2023-04-30T13:19:47.493Z,100887.19
2023-04-30T13:22:19.852Z,100874.75
2023-04-30T13:24:49.583Z,100887.94
2023-04-30T13:27:19.201Z,100909.84
2023-04-30T13:29:49.044Z,100922.53
2023-04-30T13:32:18.786Z,100874.00
2023-04-30T13:34:48.461Z,100884.38
2023-04-30T13:37:20.762Z,100887.38
2023-04-30T13:39:50.456Z,100892.66
2023-04-30T13:42:20.153Z,100901.09
2023-04-30T13:44:50.145Z,100893.41
2023-04-30T13:47:19.795Z,100904.63
2023-04-30T13:49:49.482Z,100896.06
2023-04-30T13:52:21.888Z,100917.47
2023-04-30T13:54:51.566Z,100922.03
2023-04-30T13:57:21.284Z,100935.94
2023-04-30T13:59:51.017Z,100931.03
2023-04-30T14:02:20.861Z,100932.31
2023-04-30T14:05:04.590Z,100908.91
2023-04-30T14:07:37.903Z,100921.09
2023-04-30T14:10:08.956Z,100927.31
2023-04-30T14:12:39.012Z,100926.88
2023-04-30T14:15:09.628Z,100921.50
2023-04-30T14:17:39.820Z,100924.09
2023-04-30T14:20:11.385Z,100926.75
2023-04-30T14:22:43.721Z,100930.28
2023-04-30T14:25:13.609Z,100922.03
2023-04-30T14:27:43.680Z,100919.59
2023-04-30T14:30:14.477Z,100907.44
2023-04-30T14:32:44.293Z,100903.69
2023-04-30T14:35:13.916Z,100903.03
2023-04-30T14:37:46.200Z,100901.66
2023-04-30T14:40:16.980Z,100903.16
2023-04-30T14:42:46.665Z,100906.03
2023-04-30T14:45:16.910Z,100906.78
2023-04-30T14:47:46.817Z,100899.50
2023-04-30T14:50:16.570Z,100899.09
2023-04-30T14:52:48.831Z,100879.94
2023-04-30T14:55:22.997Z,100886.53
2023-04-30T14:57:54.198Z,100881.41
2023-04-30T15:00:24.201Z,100888.34
2023-04-30T15:02:54.403Z,100893.50
2023-04-30T15:05:24.205Z,100898.53
2023-04-30T15:07:56.492Z,100909.09
2023-04-30T15:10:26.481Z,100892.13
2023-04-30T15:12:56.767Z,100898.44
2023-04-30T15:15:28.933Z,100906.31
2023-04-30T15:17:59.989Z,100904.97
2023-04-30T15:20:29.760Z,100884.56
2023-04-30T15:23:02.073Z,100890.13
2023-04-30T15:25:32.255Z,100890.03
2023-04-30T15:28:02.075Z,100894.81
2023-04-30T15:30:31.764Z,100887.38
2023-04-30T15:33:01.437Z,100873.78
2023-04-30T15:35:31.229Z,100870.38
2023-04-30T15:38:03.561Z,100883.06
2023-04-30T15:40:33.298Z,100877.84
2023-04-30T15:43:02.945Z,100886.09
2023-04-30T15:45:33.747Z,100900.28
2023-04-30T15:48:03.776Z,100887.34
2023-04-30T15:50:33.793Z,100881.06
2023-04-30T15:53:06.284Z,100870.59
2023-04-30T15:55:36.043Z,100874.56
2023-04-30T15:58:06.108Z,100878.19
2023-04-30T16:00:35.749Z,100870.50
2023-04-30T16:03:05.428Z,100869.44
2023-04-30T16:05:38.853Z,100865.47
2023-04-30T16:08:12.257Z,100875.31
2023-04-30T16:10:42.267Z,100862.38
2023-04-30T16:13:11.993Z,100862.38
2023-04-30T16:15:41.729Z,100857.88
2023-04-30T16:18:11.366Z,100854.03
2023-04-30T16:20:41.554Z,100835.38
2023-04-30T16:23:13.869Z,100818.69
2023-04-30T16:25:43.713Z,100832.16
2023-04-30T16:28:13.508Z,100798.97
2023-04-30T16:30:44.016Z,100818.19
2023-04-30T16:33:13.788Z,100817.13
2023-04-30T16:35:43.652Z,100822.56
2023-04-30T16:38:16.070Z,100816.16
2023-04-30T16:40:45.839Z,100823.06
2023-04-30T16:43:15.507Z,100811.34
2023-04-30T16:45:45.223Z,100809.75
2023-04-30T16:48:14.993Z,100810.06
2023-04-30T16:50:44.683Z,100808.34
2023-04-30T16:53:16.970Z,100809.31
2023-04-30T16:55:46.705Z,100791.63
2023-04-30T16:58:16.866Z,100788.75
2023-04-30T17:00:46.706Z,100775.19
2023-04-30T17:03:16.508Z,100774.22
2023-04-30T17:05:46.271Z,100771.66
2023-04-30T17:08:19.524Z,100774.31
2023-04-30T17:10:49.367Z,100758.97
2023-04-30T17:13:19.144Z,100767.81
2023-04-30T17:15:49.204Z,100766.44
2023-04-30T17:18:20.032Z,100762.06
2023-04-30T17:20:49.813Z,100769.41
2023-04-30T17:23:22.124Z,100766.00
2023-04-30T17:25:51.835Z,100765.78
2023-04-30T17:28:21.945Z,100749.47
2023-04-30T17:30:51.803Z,100749.03
2023-04-30T17:33:21.615Z,100756.72
2023-04-30T17:35:51.587Z,100756.75
2023-04-30T17:38:23.929Z,100741.59
2023-04-30T17:40:56.790Z,100730.16
2023-04-30T17:43:26.646Z,100733.06
2023-04-30T17:45:57.426Z,100741.69
2023-04-30T17:48:27.426Z,100693.16
2023-04-30T17:50:57.489Z,100683.47
2023-04-30T17:53:29.766Z,100668.75
2023-04-30T17:56:00.164Z,100697.31
2023-04-30T17:58:30.533Z,100717.38
2023-04-30T18:01:01.800Z,100707.13
2023-04-30T18:03:32.629Z,100664.25
2023-04-30T18:06:02.501Z,100705.53
2023-04-30T18:08:35.473Z,100708.13
2023-04-30T18:11:05.633Z,100709.25
2023-04-30T18:13:41.564Z,100687.34
2023-04-30T18:16:11.320Z,100682.41
2023-04-30T18:18:41.111Z,100661.84
2023-04-30T18:21:11.446Z,100657.31
2023-04-30T18:23:43.793Z,100621.41
2023-04-30T18:26:13.516Z,100605.97
2023-04-30T18:28:43.176Z,100598.38
2023-04-30T18:31:12.991Z,100592.91
2023-04-30T18:33:43.236Z,100595.63
2023-04-30T18:36:13.223Z,100597.94
2023-04-30T18:38:46.085Z,100555.88
2023-04-30T18:41:15.885Z,100523.59
2023-04-30T18:43:45.875Z,100478.16
2023-04-30T18:46:15.585Z,100449.44
2023-04-30T18:48:45.255Z,100419.00
2023-04-30T18:51:15.092Z,100400.06
2023-04-30T18:53:47.847Z,100389.38
2023-04-30T18:56:17.680Z,100385.34
2023-04-30T18:58:48.348Z,100349.50
2023-04-30T19:01:18.418Z,100316.44
2023-04-30T19:03:48.128Z,100294.00
2023-04-30T19:06:17.906Z,100263.50
2023-04-30T19:08:50.298Z,100245.31
2023-04-30T19:11:20.096Z,100218.53
2023-04-30T19:13:49.768Z,100211.81
2023-04-30T19:16:19.541Z,100187.44
2023-04-30T19:18:49.271Z,100180.09
2023-04-30T19:21:19.565Z,100182.41
2023-04-30T19:23:52.003Z,100168.78
2023-04-30T19:26:22.141Z,100148.06
2023-04-30T19:28:51.780Z,100141.66
2023-04-30T19:31:22.486Z,100133.47
2023-04-30T19:33:52.201Z,100121.66
2023-04-30T19:36:21.888Z,100107.00
2023-04-30T19:38:56.308Z,100080.25
2023-04-30T19:41:26.095Z,100071.16
2023-04-30T19:43:56.721Z,100064.47
2023-04-30T19:46:27.218Z,100048.88
2023-04-30T19:48:56.973Z,100030.81
2023-04-30T19:51:26.689Z,100020.53
2023-04-30T19:53:59.136Z,100001.63
2023-04-30T19:56:29.095Z,100001.13
2023-04-30T19:58:58.959Z,99998.97
2023-04-30T20:01:28.862Z,99986.09
2023-04-30T20:03:58.691Z,99983.00
2023-04-30T20:06:28.614Z,99975.44
2023-04-30T20:09:01.175Z,99968.75
2023-04-30T20:11:31.054Z,99963.09
2023-04-30T20:14:00.817Z,99952.25
2023-04-30T20:16:30.851Z,99941.09
2023-04-30T20:19:00.678Z,99904.41
2023-04-30T20:21:30.460Z,99890.56
2023-04-30T20:24:04.328Z,99875.81
2023-04-30T20:26:34.636Z,99869.19
2023-04-30T20:29:04.278Z,99868.66
2023-04-30T20:31:34.488Z,99842.47
2023-04-30T20:34:04.279Z,99834.06
2023-04-30T20:36:34.509Z,99821.16
2023-04-30T20:39:07.168Z,99808.13
2023-04-30T20:41:37.971Z,99791.81
2023-04-30T20:44:08.132Z,99767.44
2023-04-30T20:46:38.432Z,99758.84
2023-04-30T20:49:11.130Z,99747.75
2023-04-30T20:51:41.174Z,99747.06
2023-04-30T20:54:13.611Z,99736.69
2023-04-30T20:56:45.192Z,99733.59
2023-04-30T20:59:14.955Z,99725.84
2023-04-30T21:01:44.750Z,99728.84
2023-04-30T21:04:14.561Z,99723.94
2023-04-30T21:06:44.331Z,99724.97
2023-04-30T21:09:16.902Z,99721.97
2023-04-30T21:11:46.602Z,99728.38
2023-04-30T21:14:16.342Z,99732.25
2023-04-30T21:16:46.547Z,99739.59
2023-04-30T21:19:16.422Z,99742.69
2023-04-30T21:21:46.505Z,99736.09
2023-04-30T21:24:19.241Z,99658.97
2023-04-30T21:26:49.479Z,99670.75
2023-04-30T21:29:19.262Z,99683.56
2023-04-30T21:31:48.937Z,99685.63
2023-04-30T21:34:19.798Z,99690.34
2023-04-30T21:36:49.416Z,99698.63
2023-04-30T21:39:21.738Z,99708.59
2023-04-30T21:41:51.980Z,99704.34
2023-04-30T21:44:22.295Z,99709.03
2023-04-30T21:46:52.256Z,99738.50
2023-04-30T21:49:22.009Z,99758.19
2023-04-30T21:51:51.951Z,99756.75
2023-04-30T21:54:24.229Z,99747.28
2023-04-30T21:56:53.931Z,99732.50
2023-04-30T21:59:23.590Z,99731.91
2023-04-30T22:01:53.357Z,99727.84
2023-04-30T22:04:25.423Z,99732.63
2023-04-30T22:06:55.305Z,99730.16
2023-04-30T22:09:27.624Z,99724.19
2023-04-30T22:11:57.272Z,99708.81
2023-04-30T22:14:27.033Z,99713.31
2023-04-30T22:16:56.726Z,99705.59
2023-04-30T22:19:26.389Z,99705.72
2023-04-30T22:21:56.042Z,99699.00
2023-04-30T22:24:28.446Z,99703.72
2023-04-30T22:26:58.158Z,99696.03
2023-04-30T22:29:27.836Z,99675.91
2023-04-30T22:31:57.621Z,99678.81
2023-04-30T22:34:27.345Z,99679.16
2023-04-30T22:36:56.986Z,99685.50
2023-04-30T22:39:29.321Z,99676.94
2023-04-30T22:41:59.507Z,99662.31
2023-04-30T22:44:29.261Z,99664.28
2023-04-30T22:46:59.267Z,99666.31
2023-04-30T22:49:31.759Z,99668.34
2023-04-30T22:52:02.058Z,99660.69
2023-04-30T22:54:34.296Z,99657.31
2023-04-30T22:57:03.975Z,99651.34
2023-04-30T22:59:33.974Z,99647.19
2023-04-30T23:02:03.706Z,99640.28
2023-04-30T23:04:33.922Z,99634.34
2023-04-30T23:07:03.716Z,99627.53
2023-04-30T23:09:36.048Z,99619.72
2023-04-30T23:12:06.311Z,99616.44
2023-04-30T23:14:35.920Z,99609.63
2023-04-30T23:17:05.964Z,99607.16
2023-04-30T23:19:35.758Z,99597.72
2023-04-30T23:22:05.620Z,99593.56
2023-04-30T23:24:39.279Z,99577.09
2023-04-30T23:27:09.047Z,99592.19
2023-04-30T23:29:38.800Z,99579.22
2023-04-30T23:32:08.603Z,99580.31
2023-04-30T23:34:38.295Z,99570.72
2023-04-30T23:37:08.038Z,99548.06
2023-04-30T23:39:40.285Z,99536.94
2023-04-30T23:42:10.320Z,99537.78
2023-04-30T23:44:39.966Z,99536.31
2023-04-30T23:47:10.449Z,99522.41
2023-04-30T23:49:40.091Z,99511.97
2023-04-30T23:52:10.037Z,99506.94
2023-04-30T23:54:42.245Z,99500.09
2023-04-30T23:57:12.114Z,99495.84
2023-04-30T23:59:42.633Z,99492.38
